Time;durP1;ratioP1;P1;durP2;ratioP2;P2;SDS_P1;SDS_P2;PMS_P1;PMS_P2;Temp;Humidity;BMP_temperature;BMP_pressure;BME280_temperature;BME280_humidity;BME280_pressure;Samples;Min_cycle;Max_cycle;Signal;HPM_P1;HPM_P2
2023/06/04 00:02:23;;;;;;;6.95;5.75;;;20.00;94.10;;;;;;5046751;28;20034;-78
2023/06/04 00:04:49;;;;;;;6.88;6.00;;;20.10;94.10;;;;;;5032053;28;20382;-78
2023/06/04 00:07:15;;;;;;;7.32;5.90;;;20.20;94.00;;;;;;5063565;28;20040;-78
2023/06/04 00:09:41;;;;;;;10.13;6.07;;;20.00;94.20;;;;;;5047508;28;20467;-78
2023/06/04 00:12:07;;;;;;;7.75;6.07;;;20.00;94.20;;;;;;5063715;28;20026;-78
2023/06/04 00:14:33;;;;;;;6.88;5.80;;;19.90;94.40;;;;;;5047481;28;20037;-77
2023/06/04 00:17:00;;;;;;;8.13;5.90;;;19.90;94.30;;;;;;5046768;28;20052;-77
2023/06/04 00:19:26;;;;;;;9.32;5.90;;;19.80;94.50;;;;;;5030485;28;20426;-77
2023/06/04 00:21:52;;;;;;;8.60;5.55;;;19.70;94.70;;;;;;5046509;28;20052;-77
2023/06/04 00:24:18;;;;;;;10.27;5.57;;;19.70;94.80;;;;;;5047724;28;20481;-78
2023/06/04 00:26:44;;;;;;;10.45;5.47;;;19.80;94.60;;;;;;5047034;28;20037;-78
2023/06/04 00:29:10;;;;;;;6.93;6.22;;;19.70;94.60;;;;;;5063998;28;20026;-78
2023/06/04 00:31:36;;;;;;;8.63;6.15;;;19.70;94.90;;;;;;5046422;28;20478;-77
2023/06/04 00:34:06;;;;;;;11.50;6.18;;;19.60;95.00;;;;;;5031808;28;20032;-77
2023/06/04 00:36:32;;;;;;;7.38;5.63;;;19.50;95.10;;;;;;5031261;28;20037;-78
2023/06/04 00:38:58;;;;;;;7.45;6.32;;;19.40;95.30;;;;;;5031976;28;20022;-78
2023/06/04 00:41:25;;;;;;;8.45;5.82;;;19.30;95.50;;;;;;5031454;28;20489;-78
2023/06/04 00:43:57;;;;;;;9.07;6.35;;;19.40;95.60;;;;;;5031951;28;20028;-78
2023/06/04 00:46:25;;;;;;;7.32;5.65;;;19.40;95.50;;;;;;5030858;28;20052;-77
2023/06/04 00:48:52;;;;;;;8.05;6.03;;;19.50;95.40;;;;;;5047733;28;20032;-78
2023/06/04 00:51:18;;;;;;;9.43;5.80;;;19.40;95.40;;;;;;5041725;28;20033;-77
2023/06/04 00:53:45;;;;;;;10.20;6.00;;;19.50;95.20;;;;;;5030710;28;20379;-77
2023/06/04 00:56:12;;;;;;;7.00;5.60;;;19.60;95.10;;;;;;5030324;28;20040;-77
2023/06/04 00:58:38;;;;;;;16.38;6.55;;;19.30;95.40;;;;;;5031660;28;20026;-78
2023/06/04 01:01:07;;;;;;;8.38;5.90;;;19.20;95.60;;;;;;5030906;28;20053;-78
2023/06/04 01:03:34;;;;;;;7.45;6.10;;;19.10;95.80;;;;;;5030596;28;20025;-77
2023/06/04 01:06:08;;;;;;;12.60;6.15;;;19.00;96.00;;;;;;5032945;28;20037;-77
2023/06/04 01:08:35;;;;;;;6.70;5.78;;;19.00;96.10;;;;;;5034762;28;20034;-77
2023/06/04 01:11:01;;;;;;;9.23;6.18;;;19.10;96.10;;;;;;5033723;28;20475;-78
2023/06/04 01:13:27;;;;;;;6.50;5.80;;;19.00;96.10;;;;;;5035081;28;20033;-78
2023/06/04 01:15:53;;;;;;;9.27;5.93;;;18.90;96.40;;;;;;5034418;28;20509;-77
2023/06/04 01:18:29;;;;;;;6.80;5.80;;;18.90;96.50;;;;;;5033585;28;20030;-77
2023/06/04 01:21:00;;;;;;;7.30;6.20;;;18.90;96.50;;;;;;5033499;28;20037;-77
2023/06/04 01:23:35;;;;;;;9.93;6.13;;;19.00;96.40;;;;;;5033675;28;20386;-77
2023/06/04 01:26:03;;;;;;;6.85;6.07;;;19.00;96.30;;;;;;5034495;28;20040;-77
2023/06/04 01:28:33;;;;;;;10.25;5.97;;;19.00;96.30;;;;;;5034946;28;20028;-77
2023/06/04 01:30:59;;;;;;;7.85;5.47;;;18.80;96.60;;;;;;5033515;28;20042;-77
2023/06/04 01:33:25;;;;;;;7.10;5.30;;;18.80;96.70;;;;;;5033231;28;20025;-78
2023/06/04 01:35:51;;;;;;;6.90;5.57;;;18.70;96.80;;;;;;5033091;28;20030;-77
2023/06/04 01:38:18;;;;;;;8.45;6.25;;;18.60;97.00;;;;;;5033197;28;20038;-77
2023/06/04 01:40:44;;;;;;;7.72;5.70;;;18.60;97.00;;;;;;5049483;28;20033;-77
2023/06/04 01:43:10;;;;;;;8.35;5.97;;;18.60;97.00;;;;;;5066794;28;20041;-78
2023/06/04 01:45:36;;;;;;;10.73;6.13;;;18.60;97.00;;;;;;5049172;28;20038;-77
2023/06/04 01:48:03;;;;;;;7.90;5.57;;;18.70;96.90;;;;;;5043628;28;20052;-77
2023/06/04 01:50:30;;;;;;;6.55;5.40;;;18.80;96.80;;;;;;5050223;28;20025;-78
2023/06/04 01:52:56;;;;;;;7.97;5.75;;;18.80;96.80;;;;;;5034439;28;20018;-78
2023/06/04 01:55:24;;;;;;;6.85;5.97;;;18.60;97.00;;;;;;5016205;28;20040;-78
2023/06/04 01:57:51;;;;;;;13.38;5.45;;;18.60;97.00;;;;;;5033253;28;20025;-76
2023/06/04 02:00:17;;;;;;;8.80;5.68;;;18.60;97.10;;;;;;5015223;28;20048;-78
2023/06/04 02:02:45;;;;;;;7.72;5.35;;;18.50;97.20;;;;;;5027609;28;20390;-77
2023/06/04 02:05:11;;;;;;;8.57;5.60;;;18.40;97.30;;;;;;5021035;28;20033;-79
2023/06/04 02:07:38;;;;;;;5.68;5.07;;;18.30;97.50;;;;;;5037153;28;20025;-77
2023/06/04 02:10:06;;;;;;;6.72;5.72;;;18.20;97.80;;;;;;5025835;28;20026;-77
2023/06/04 02:12:32;;;;;;;6.22;5.30;;;18.20;97.80;;;;;;5047058;28;20052;-78
2023/06/04 02:14:58;;;;;;;7.93;4.75;;;18.30;97.60;;;;;;5031027;28;20042;-78
2023/06/04 02:17:25;;;;;;;7.70;5.30;;;18.10;97.70;;;;;;5046753;28;20569;-77
2023/06/04 02:19:51;;;;;;;6.00;5.18;;;18.10;98.00;;;;;;5031426;28;20378;-77
2023/06/04 02:22:18;;;;;;;11.45;4.85;;;18.20;98.00;;;;;;5014251;28;20049;-78
2023/06/04 02:24:44;;;;;;;6.20;4.85;;;18.20;97.90;;;;;;5031111;28;20493;-77
2023/06/04 02:27:10;;;;;;;7.15;5.85;;;18.10;98.10;;;;;;5064245;28;20045;-78
2023/06/04 02:29:38;;;;;;;6.75;5.13;;;18.00;98.20;;;;;;5064316;28;20084;-77
2023/06/04 02:32:04;;;;;;;6.40;5.18;;;18.00;98.40;;;;;;5046434;28;20029;-78
2023/06/04 02:34:30;;;;;;;7.47;5.10;;;18.00;98.20;;;;;;5014657;28;20042;-77
2023/06/04 02:36:56;;;;;;;7.68;5.30;;;18.00;98.30;;;;;;5034763;28;20355;-78
2023/06/04 02:39:22;;;;;;;6.40;5.15;;;17.90;98.30;;;;;;5032319;28;20033;-78
2023/06/04 02:41:48;;;;;;;6.75;5.00;;;17.80;98.60;;;;;;5025528;28;20398;-78
2023/06/04 02:44:15;;;;;;;6.75;5.40;;;17.80;98.70;;;;;;5033572;28;20093;-79
2023/06/04 02:46:41;;;;;;;7.47;5.38;;;17.90;98.40;;;;;;5032130;28;20056;-78
2023/06/04 02:49:07;;;;;;;6.95;5.03;;;17.80;98.50;;;;;;5051914;28;20032;-78
2023/06/04 02:51:33;;;;;;;12.68;5.60;;;17.80;98.60;;;;;;5039988;28;20033;-77
2023/06/04 02:54:00;;;;;;;8.57;4.90;;;17.60;98.70;;;;;;5033225;28;20033;-77
2023/06/04 02:56:26;;;;;;;7.20;5.25;;;17.60;98.90;;;;;;5032987;28;20029;-78
2023/06/04 02:58:53;;;;;;;7.10;5.30;;;17.50;99.00;;;;;;5032013;28;20509;-77
2023/06/04 03:01:20;;;;;;;7.55;4.80;;;17.60;99.00;;;;;;5030656;28;20049;-77
2023/06/04 03:03:47;;;;;;;7.15;5.13;;;17.60;98.90;;;;;;5031873;28;20025;-77
2023/06/04 03:06:14;;;;;;;9.20;5.18;;;17.50;99.00;;;;;;5031689;28;20041;-77
2023/06/04 03:08:41;;;;;;;7.05;5.30;;;17.50;99.10;;;;;;5031974;28;20470;-77
2023/06/04 03:11:07;;;;;;;7.50;5.10;;;17.60;99.00;;;;;;5031341;28;20033;-77
2023/06/04 03:13:33;;;;;;;5.95;5.35;;;17.60;99.00;;;;;;5031768;28;20389;-77
2023/06/04 03:16:02;;;;;;;5.80;5.00;;;17.60;99.00;;;;;;5031765;28;20044;-77
2023/06/04 03:18:28;;;;;;;7.68;4.88;;;17.60;99.00;;;;;;5031756;28;20021;-77
2023/06/04 03:20:54;;;;;;;8.18;5.43;;;17.60;99.00;;;;;;5031329;28;20060;-78
2023/06/04 03:23:21;;;;;;;8.73;5.00;;;17.60;98.70;;;;;;5031582;28;20029;-77
2023/06/04 03:25:47;;;;;;;6.68;5.07;;;17.50;99.00;;;;;;5031235;28;20041;-78
2023/06/04 03:28:13;;;;;;;7.18;5.28;;;17.50;99.00;;;;;;5030770;28;20463;-77
2023/06/04 03:30:43;;;;;;;5.20;4.70;;;17.50;99.10;;;;;;5030562;28;20045;-77
2023/06/04 03:33:09;;;;;;;5.53;5.03;;;17.50;99.10;;;;;;5031252;28;20517;-78
2023/06/04 03:35:35;;;;;;;7.45;5.13;;;17.30;99.30;;;;;;5031049;28;20032;-77
2023/06/04 03:38:01;;;;;;;7.32;4.78;;;17.30;99.40;;;;;;5031039;28;20410;-78
2023/06/04 03:40:28;;;;;;;10.15;5.10;;;17.30;99.40;;;;;;5030936;28;20025;-78
2023/06/04 03:42:54;;;;;;;8.77;5.03;;;17.30;99.40;;;;;;5032088;28;20041;-78
2023/06/04 03:45:20;;;;;;;6.72;5.00;;;17.30;99.40;;;;;;5031675;28;20493;-78
2023/06/04 03:47:46;;;;;;;5.80;5.10;;;17.30;99.40;;;;;;5040999;28;20437;-77
2023/06/04 03:50:12;;;;;;;7.60;5.35;;;17.40;99.40;;;;;;5052343;28;20021;-78
2023/06/04 03:52:38;;;;;;;5.22;4.47;;;17.30;99.40;;;;;;5034187;28;20036;-78
2023/06/04 03:55:05;;;;;;;7.38;4.90;;;17.20;99.70;;;;;;5051072;28;20029;-77
2023/06/04 03:57:32;;;;;;;6.53;4.88;;;17.20;99.70;;;;;;5051964;28;20389;-77
2023/06/04 03:59:58;;;;;;;7.22;4.97;;;17.10;99.80;;;;;;5052156;28;20377;-77
2023/06/04 04:02:24;;;;;;;6.22;4.65;;;17.20;99.70;;;;;;5034412;28;20053;-77
2023/06/04 04:04:54;;;;;;;11.30;5.30;;;17.20;99.80;;;;;;5031072;28;20382;-77
2023/06/04 04:07:20;;;;;;;7.60;4.90;;;17.00;99.90;;;;;;5030574;28;20025;-78
2023/06/04 04:09:47;;;;;;;6.50;4.78;;;17.00;99.90;;;;;;5031007;28;20407;-77
2023/06/04 04:12:13;;;;;;;10.52;4.75;;;17.00;99.90;;;;;;5031562;28;20041;-78
2023/06/04 04:14:39;;;;;;;5.18;4.60;;;17.00;99.90;;;;;;5030470;28;20406;-77
2023/06/04 04:17:05;;;;;;;6.28;5.25;;;16.90;99.90;;;;;;5031338;28;20029;-76
2023/06/04 04:19:31;;;;;;;7.78;5.03;;;16.80;99.90;;;;;;5014245;28;20398;-77
2023/06/04 04:21:57;;;;;;;7.63;5.13;;;16.80;99.90;;;;;;5030483;28;20053;-77
2023/06/04 04:24:24;;;;;;;10.77;5.07;;;16.80;99.90;;;;;;5032229;28;20455;-77
2023/06/04 04:26:53;;;;;;;6.72;4.90;;;16.80;99.90;;;;;;5030164;28;20040;-77
2023/06/04 04:29:22;;;;;;;7.45;5.38;;;16.60;99.90;;;;;;5032016;28;20481;-78
2023/06/04 04:31:51;;;;;;;6.38;4.93;;;16.60;99.90;;;;;;5029974;28;20046;-78
2023/06/04 04:34:21;;;;;;;7.13;5.20;;;16.60;99.90;;;;;;5031982;28;20034;-78
2023/06/04 04:36:52;;;;;;;7.63;5.25;;;16.50;99.90;;;;;;5030308;28;20040;-77
2023/06/04 04:39:27;;;;;;;10.90;5.60;;;16.60;99.90;;;;;;5033635;28;20029;-78
2023/06/04 04:41:54;;;;;;;8.63;5.45;;;16.70;99.90;;;;;;5016803;28;20045;-78
2023/06/04 04:44:20;;;;;;;8.32;5.53;;;16.70;99.90;;;;;;5035796;28;20378;-78
2023/06/04 04:46:48;;;;;;;9.50;5.97;;;16.60;99.90;;;;;;5034189;28;20394;-78
2023/06/04 04:49:14;;;;;;;6.43;5.20;;;16.60;99.90;;;;;;5054247;28;20051;-78
2023/06/04 04:51:40;;;;;;;6.15;5.25;;;16.50;99.90;;;;;;5042767;28;20033;-78
2023/06/04 04:54:06;;;;;;;6.03;5.30;;;16.50;99.90;;;;;;5034387;28;20034;-78
2023/06/04 04:56:35;;;;;;;6.75;5.35;;;16.40;99.90;;;;;;5034768;28;20029;-77
2023/06/04 04:59:01;;;;;;;7.63;5.43;;;16.50;99.90;;;;;;5034316;28;20386;-77
2023/06/04 05:01:28;;;;;;;8.35;6.22;;;16.70;99.90;;;;;;5034340;28;20057;-77
2023/06/04 05:03:54;;;;;;;8.52;5.85;;;16.70;99.90;;;;;;5034014;28;20033;-78
2023/06/04 05:06:21;;;;;;;6.57;5.15;;;16.80;99.90;;;;;;5033217;28;20535;-78
2023/06/04 05:08:47;;;;;;;9.18;5.32;;;17.00;99.90;;;;;;5034102;28;20033;-78
2023/06/04 05:11:13;;;;;;;10.55;5.45;;;16.90;99.90;;;;;;5033425;28;20414;-78
2023/06/04 05:13:41;;;;;;;6.80;5.00;;;17.00;99.90;;;;;;5035163;28;20033;-78
2023/06/04 05:16:07;;;;;;;9.18;5.18;;;17.10;99.90;;;;;;5032796;28;20038;-78
2023/06/04 05:18:34;;;;;;;6.60;4.80;;;17.20;99.90;;;;;;5033634;28;20414;-78
2023/06/04 05:21:02;;;;;;;8.52;4.78;;;17.30;99.90;;;;;;5034639;28;20385;-78
2023/06/04 05:23:30;;;;;;;8.40;5.00;;;17.40;99.90;;;;;;5033855;28;20033;-77
2023/06/04 05:25:56;;;;;;;6.97;5.40;;;17.50;99.90;;;;;;5033226;28;20096;-78
2023/06/04 05:28:24;;;;;;;5.72;5.13;;;17.70;99.80;;;;;;5033860;28;20356;-78
2023/06/04 05:30:58;;;;;;;7.32;5.50;;;17.90;99.50;;;;;;5032989;28;20037;-78
2023/06/04 05:33:25;;;;;;;7.47;5.22;;;17.90;99.30;;;;;;5033611;28;20033;-78
2023/06/04 05:35:57;;;;;;;6.07;5.50;;;18.00;99.10;;;;;;5016933;28;20380;-78
2023/06/04 05:38:25;;;;;;;7.85;5.55;;;18.00;99.00;;;;;;5033000;28;20048;-78
2023/06/04 05:40:53;;;;;;;9.82;5.28;;;18.10;98.80;;;;;;5049035;28;20036;-79
2023/06/04 05:43:19;;;;;;;8.93;5.53;;;18.20;98.60;;;;;;5066627;28;20033;-79
2023/06/04 05:45:46;;;;;;;6.05;4.90;;;18.30;98.40;;;;;;5049267;28;20030;-77
2023/06/04 05:48:12;;;;;;;6.60;5.00;;;18.50;98.20;;;;;;5044903;28;20053;-79
2023/06/04 05:50:38;;;;;;;7.20;4.82;;;18.50;98.10;;;;;;5049573;28;20025;-78
2023/06/04 05:53:04;;;;;;;6.78;5.30;;;18.60;97.80;;;;;;5016681;28;20040;-78
2023/06/04 05:55:30;;;;;;;5.80;5.20;;;18.60;97.80;;;;;;5032631;28;20038;-79
2023/06/04 05:57:56;;;;;;;10.65;5.32;;;18.70;97.60;;;;;;5033370;28;20462;-78
2023/06/04 06:00:23;;;;;;;8.93;5.57;;;18.60;97.50;;;;;;5032271;28;20049;-78
2023/06/04 06:02:50;;;;;;;11.05;5.30;;;18.60;97.60;;;;;;5016461;28;20045;-78
2023/06/04 06:05:17;;;;;;;5.72;5.18;;;18.60;97.30;;;;;;5032872;28;20493;-78
2023/06/04 06:07:44;;;;;;;6.20;5.60;;;18.30;97.70;;;;;;5032558;28;20497;-76
2023/06/04 06:10:10;;;;;;;6.68;5.13;;;18.30;97.90;;;;;;5032838;28;20030;-78
2023/06/04 06:12:36;;;;;;;5.43;4.70;;;18.40;97.80;;;;;;5032387;28;20026;-78
2023/06/04 06:15:02;;;;;;;8.27;5.47;;;18.40;97.60;;;;;;5032579;28;20041;-78
2023/06/04 06:17:28;;;;;;;10.18;5.30;;;18.50;97.70;;;;;;5014533;28;20057;-79
2023/06/04 06:19:55;;;;;;;8.82;5.70;;;18.70;97.40;;;;;;5034000;28;20045;-78
2023/06/04 06:22:22;;;;;;;7.68;5.70;;;18.90;97.20;;;;;;5033172;28;20041;-78
2023/06/04 06:24:48;;;;;;;7.00;5.05;;;19.00;96.90;;;;;;5032535;28;20029;-78
2023/06/04 06:27:15;;;;;;;7.70;5.38;;;19.10;96.80;;;;;;5032292;28;20033;-78
2023/06/04 06:29:42;;;;;;;6.13;5.28;;;19.20;96.60;;;;;;5032706;28;20018;-79
2023/06/04 06:32:09;;;;;;;6.95;5.40;;;19.20;96.60;;;;;;5031664;28;20045;-78
2023/06/04 06:34:35;;;;;;;6.65;5.70;;;19.30;96.60;;;;;;5033545;28;20030;-79
2023/06/04 06:37:01;;;;;;;8.93;5.57;;;19.50;96.50;;;;;;5031648;28;20033;-78
2023/06/04 06:39:27;;;;;;;5.95;5.35;;;19.60;96.00;;;;;;5032438;28;20040;-79
2023/06/04 06:41:53;;;;;;;5.97;5.28;;;19.50;96.10;;;;;;5032952;28;20045;-79
2023/06/04 06:44:19;;;;;;;6.95;5.63;;;19.60;96.00;;;;;;5032230;28;20025;-79
2023/06/04 06:46:46;;;;;;;6.05;5.22;;;19.50;96.10;;;;;;5030783;28;20048;-79
2023/06/04 06:49:12;;;;;;;6.90;5.28;;;19.60;96.00;;;;;;5032049;28;20026;-79
2023/06/04 06:51:39;;;;;;;7.30;5.70;;;19.70;96.20;;;;;;5031489;28;20037;-79
2023/06/04 06:54:05;;;;;;;6.75;5.70;;;19.90;95.70;;;;;;5033334;28;20036;-79
2023/06/04 06:56:31;;;;;;;5.97;5.38;;;20.10;95.50;;;;;;5031259;28;20038;-78
2023/06/04 06:58:57;;;;;;;6.40;5.80;;;20.20;95.00;;;;;;5032049;28;20025;-78
2023/06/04 07:01:23;;;;;;;6.22;5.63;;;20.30;95.30;;;;;;5031097;28;20386;-79
2023/06/04 07:03:49;;;;;;;8.82;5.88;;;20.50;94.90;;;;;;5030909;28;20025;-79
2023/06/04 07:06:16;;;;;;;9.25;5.75;;;20.60;94.50;;;;;;5031318;28;20386;-78
2023/06/04 07:08:42;;;;;;;7.85;5.80;;;20.70;94.40;;;;;;5031742;28;20037;-78
2023/06/04 07:11:11;;;;;;;8.02;6.30;;;20.80;94.20;;;;;;5032653;28;20033;-78
2023/06/04 07:13:40;;;;;;;9.25;5.90;;;20.80;94.00;;;;;;5031919;28;20041;-79
2023/06/04 07:16:06;;;;;;;7.30;5.55;;;20.80;94.00;;;;;;5031911;28;20064;-79
2023/06/04 07:18:33;;;;;;;6.90;6.20;;;20.80;94.30;;;;;;5031707;28;20037;-78
2023/06/04 07:20:59;;;;;;;6.28;5.68;;;20.90;93.80;;;;;;5031125;28;20048;-78
2023/06/04 07:23:25;;;;;;;8.45;6.30;;;21.00;93.70;;;;;;5032609;28;20152;-78
2023/06/04 07:25:51;;;;;;;6.80;6.10;;;21.00;93.70;;;;;;5031094;28;20021;-78
2023/06/04 07:28:17;;;;;;;7.40;6.38;;;21.00;93.90;;;;;;5031082;28;20501;-79
2023/06/04 07:30:45;;;;;;;6.72;6.00;;;21.10;93.60;;;;;;5031789;28;20041;-79
2023/06/04 07:33:11;;;;;;;7.20;6.50;;;21.20;93.70;;;;;;5014813;28;20360;-79
2023/06/04 07:35:37;;;;;;;7.22;6.60;;;21.20;93.40;;;;;;5030657;28;20034;-79
2023/06/04 07:38:03;;;;;;;8.05;6.80;;;21.40;93.50;;;;;;5031260;28;20080;-79
2023/06/04 07:40:29;;;;;;;8.10;6.97;;;21.60;93.30;;;;;;5047455;28;20033;-78
2023/06/04 07:42:56;;;;;;;9.02;7.88;;;21.80;92.90;;;;;;5031173;28;20371;-78
2023/06/04 07:45:22;;;;;;;8.13;6.63;;;21.90;92.70;;;;;;5030559;28;20037;-79
2023/06/04 07:47:48;;;;;;;10.95;8.13;;;21.90;92.50;;;;;;5040125;28;20053;-77
2023/06/04 07:50:14;;;;;;;8.68;6.78;;;21.90;92.40;;;;;;5049764;28;20039;-78
2023/06/04 07:52:40;;;;;;;9.80;8.05;;;22.00;92.60;;;;;;5030650;28;20037;-79
2023/06/04 07:55:08;;;;;;;11.80;8.20;;;22.20;92.40;;;;;;5032233;28;20029;-80
2023/06/04 07:57:34;;;;;;;9.27;8.63;;;22.30;92.50;;;;;;5032201;28;20037;-79
2023/06/04 08:00:03;;;;;;;9.63;8.68;;;22.50;92.30;;;;;;5014596;28;20033;-78
2023/06/04 08:02:30;;;;;;;9.55;8.70;;;22.50;91.90;;;;;;5029787;28;20510;-78
2023/06/04 08:04:56;;;;;;;9.18;8.38;;;22.50;92.10;;;;;;5030604;28;20037;-79
2023/06/04 08:07:22;;;;;;;9.73;8.98;;;22.70;92.10;;;;;;5030627;28;20037;-78
2023/06/04 08:09:49;;;;;;;10.60;9.73;;;22.90;91.60;;;;;;5031099;28;20049;-78
2023/06/04 08:12:16;;;;;;;9.35;8.73;;;23.00;91.50;;;;;;5031864;28;20471;-78
2023/06/04 08:14:42;;;;;;;11.02;10.07;;;23.10;91.20;;;;;;5033425;28;20044;-79
2023/06/04 08:17:08;;;;;;;10.07;8.90;;;23.10;91.30;;;;;;5034263;28;20505;-78
2023/06/04 08:19:34;;;;;;;10.32;9.57;;;23.10;90.80;;;;;;5018043;28;20048;-78
2023/06/04 08:22:00;;;;;;;10.57;9.65;;;23.10;91.20;;;;;;5017794;28;20068;-78
2023/06/04 08:24:26;;;;;;;10.70;9.70;;;23.10;90.90;;;;;;5036087;28;20372;-78
2023/06/04 08:26:52;;;;;;;11.57;10.60;;;23.20;91.10;;;;;;5034701;28;20036;-79
2023/06/04 08:29:19;;;;;;;11.25;10.50;;;23.40;90.80;;;;;;5035859;28;20374;-79
2023/06/04 08:31:45;;;;;;;10.95;9.80;;;23.50;90.50;;;;;;5033879;28;20038;-77
2023/06/04 08:34:11;;;;;;;11.25;10.35;;;23.60;90.80;;;;;;5034348;28;20455;-79
2023/06/04 08:36:37;;;;;;;11.10;10.05;;;23.80;90.60;;;;;;5034331;28;20037;-78
2023/06/04 08:39:03;;;;;;;13.88;10.38;;;23.80;90.40;;;;;;5034679;28;20458;-78
2023/06/04 08:41:52;;;;;;;11.63;10.48;;;23.70;90.10;;;;;;5035300;28;20038;-79
2023/06/04 08:44:18;;;;;;;11.45;10.25;;;23.70;90.00;;;;;;5019378;28;20041;-78
2023/06/04 08:46:44;;;;;;;10.65;9.75;;;23.80;90.40;;;;;;5033682;28;20045;-78
2023/06/04 08:49:12;;;;;;;10.68;9.88;;;23.70;90.60;;;;;;5054109;28;20032;-78
2023/06/04 08:51:38;;;;;;;11.52;10.43;;;23.90;90.20;;;;;;5041847;28;20021;-78
2023/06/04 08:54:05;;;;;;;10.88;10.02;;;23.90;90.10;;;;;;5018063;28;20434;-78
2023/06/04 08:56:32;;;;;;;11.02;10.02;;;23.90;90.10;;;;;;5033995;28;20025;-78
2023/06/04 08:59:08;;;;;;;11.82;10.93;;;23.90;90.40;;;;;;5034272;28;20382;-78
2023/06/04 09:01:36;;;;;;;10.63;9.93;;;24.20;89.60;;;;;;5033390;28;20045;-78
2023/06/04 09:04:07;;;;;;;12.50;10.63;;;24.30;89.90;;;;;;5033807;28;20025;-78
2023/06/04 09:06:33;;;;;;;10.98;10.13;;;24.40;90.00;;;;;;5017475;28;20048;-78
2023/06/04 09:09:01;;;;;;;13.52;12.23;;;24.50;90.10;;;;;;5017674;28;20044;-78
2023/06/04 09:11:28;;;;;;;11.60;10.55;;;24.70;89.70;;;;;;5017407;28;20030;-77
2023/06/04 09:13:54;;;;;;;12.88;11.75;;;24.80;88.20;;;;;;5017687;28;20503;-78
2023/06/04 09:16:20;;;;;;;11.30;10.43;;;24.90;87.20;;;;;;5016569;28;20049;-77
2023/06/04 09:18:46;;;;;;;11.73;10.82;;;24.70;87.60;;;;;;5017504;28;20025;-77
2023/06/04 09:21:12;;;;;;;14.30;13.00;;;24.70;89.20;;;;;;5033596;28;20029;-78
2023/06/04 09:23:47;;;;;;;11.30;10.38;;;25.00;88.00;;;;;;5033187;28;20045;-77
2023/06/04 09:26:14;;;;;;;12.88;11.52;;;25.10;87.40;;;;;;5032060;28;20030;-78
2023/06/04 09:28:40;;;;;;;12.27;11.27;;;25.20;87.80;;;;;;5000787;28;20045;-78
2023/06/04 09:31:13;;;;;;;11.02;10.13;;;25.40;87.30;;;;;;5032657;28;20033;-79
2023/06/04 09:33:48;;;;;;;11.52;10.70;;;25.30;86.80;;;;;;5033612;28;20032;-78
2023/06/04 09:36:14;;;;;;;11.27;10.45;;;25.40;86.50;;;;;;5033156;28;20037;-78
2023/06/04 09:38:41;;;;;;;11.75;10.80;;;25.50;86.40;;;;;;5033420;28;20029;-78
2023/06/04 09:41:16;;;;;;;11.40;10.50;;;25.60;85.60;;;;;;5033061;28;20030;-78
2023/06/04 09:43:43;;;;;;;12.00;10.82;;;25.60;86.00;;;;;;5016813;28;20050;-78
2023/06/04 09:46:14;;;;;;;11.60;10.50;;;25.80;85.90;;;;;;5032395;28;20041;-78
2023/06/04 09:48:40;;;;;;;12.43;11.32;;;25.90;85.70;;;;;;5033118;28;20413;-77
2023/06/04 09:51:15;;;;;;;11.20;10.50;;;26.20;85.50;;;;;;5045021;28;20029;-78
2023/06/04 09:53:41;;;;;;;11.93;11.02;;;26.30;84.80;;;;;;5017152;28;20034;-77
2023/06/04 09:56:11;;;;;;;11.20;10.20;;;26.30;85.60;;;;;;5016532;28;20033;-78
2023/06/04 09:58:38;;;;;;;11.75;10.63;;;26.30;84.00;;;;;;5049103;28;20045;-78
2023/06/04 10:01:05;;;;;;;11.18;10.07;;;26.30;83.80;;;;;;4999054;28;20037;-77
2023/06/04 10:03:35;;;;;;;11.02;10.23;;;26.40;83.60;;;;;;5032998;28;20053;-77
2023/06/04 10:06:03;;;;;;;11.15;10.25;;;26.40;83.40;;;;;;5032909;28;20370;-77
2023/06/04 10:08:30;;;;;;;11.80;10.93;;;26.50;84.40;;;;;;5016721;28;20037;-77
2023/06/04 10:11:01;;;;;;;11.52;10.63;;;26.60;83.60;;;;;;5016274;28;20026;-77
2023/06/04 10:13:31;;;;;;;;;;;26.50;83.30;;;;;;5017343;28;20037;-77
2023/06/04 10:15:58;;;;;;;11.90;10.85;;;26.50;84.70;;;;;;5032977;28;19908;-77
2023/06/04 10:18:25;;;;;;;11.43;10.52;;;26.80;83.50;;;;;;5016526;28;20033;-77
2023/06/04 10:20:54;;;;;;;11.82;10.60;;;26.60;82.80;;;;;;5016199;28;20033;-77
2023/06/04 10:23:21;;;;;;;12.07;11.00;;;26.60;83.10;;;;;;5032642;28;20044;-77
2023/06/04 10:25:52;;;;;;;11.90;10.77;;;26.70;83.30;;;;;;5048500;28;20040;-76
2023/06/04 10:28:19;;;;;;;11.75;10.75;;;26.80;82.60;;;;;;5016366;28;20037;-77
2023/06/04 10:30:46;;;;;;;11.90;10.75;;;26.90;82.70;;;;;;5031006;28;20033;-77
2023/06/04 10:33:14;;;;;;;11.82;10.70;;;26.90;82.50;;;;;;5033608;28;20474;-77
2023/06/04 10:35:40;;;;;;;13.65;10.73;;;27.00;82.60;;;;;;5032318;28;20056;-77
2023/06/04 10:38:10;;;;;;;11.65;10.73;;;27.00;81.90;;;;;;5031615;28;20038;-77
2023/06/04 10:40:37;;;;;;;11.20;10.30;;;27.00;82.50;;;;;;5032001;28;20026;-77
2023/06/04 10:43:08;;;;;;;11.50;10.50;;;27.10;83.60;;;;;;5032200;28;20048;-77
2023/06/04 10:45:34;;;;;;;13.73;11.13;;;27.20;81.20;;;;;;5031009;28;20045;-77
2023/06/04 10:48:04;;;;;;;11.95;11.05;;;27.00;81.70;;;;;;5026339;28;20052;-78
2023/06/04 10:50:32;;;;;;;11.48;10.60;;;27.00;82.50;;;;;;5048939;28;20034;-77
2023/06/04 10:52:58;;;;;;;12.13;11.02;;;27.10;83.20;;;;;;5033302;28;20026;-77
2023/06/04 10:55:24;;;;;;;11.63;10.52;;;27.20;82.00;;;;;;5033028;28;20036;-77
2023/06/04 10:57:52;;;;;;;11.45;10.65;;;27.20;82.20;;;;;;5015252;28;20466;-76
2023/06/04 11:00:18;;;;;;;12.95;11.60;;;27.30;82.30;;;;;;5014952;28;20025;-77
2023/06/04 11:02:56;;;;;;;12.50;11.50;;;27.30;81.90;;;;;;5032908;28;20046;-77
2023/06/04 11:05:33;;;;;;;11.05;10.25;;;27.50;83.50;;;;;;5031592;28;20462;-77
2023/06/04 11:07:59;;;;;;;12.45;10.95;;;27.50;81.70;;;;;;5016704;28;20021;-77
2023/06/04 11:10:40;;;;;;;13.13;11.85;;;27.40;82.40;;;;;;5015077;28;20037;-77
2023/06/04 11:13:07;;;;;;;11.75;10.85;;;27.50;82.70;;;;;;5031549;28;20032;-76
2023/06/04 11:15:39;;;;;;;12.35;11.35;;;27.50;80.90;;;;;;5030940;28;20087;-77
2023/06/04 11:18:05;;;;;;;12.77;11.77;;;27.30;80.80;;;;;;5032791;28;20037;-77
2023/06/04 11:20:31;;;;;;;12.90;11.80;;;27.50;82.00;;;;;;5031322;28;20030;-77
2023/06/04 11:22:59;;;;;;;12.43;11.43;;;27.70;81.80;;;;;;5032836;28;20056;-76
2023/06/04 11:25:26;;;;;;;12.70;11.50;;;27.60;80.40;;;;;;5031260;28;20029;-77
2023/06/04 11:27:52;;;;;;;12.85;11.93;;;27.70;81.40;;;;;;5031341;28;20025;-77
2023/06/04 11:30:19;;;;;;;15.07;13.10;;;27.70;82.30;;;;;;5030724;28;20052;-78
2023/06/04 11:32:45;;;;;;;12.98;11.90;;;27.90;82.70;;;;;;5032578;28;20041;-78
2023/06/04 11:35:11;;;;;;;12.93;11.88;;;28.00;82.60;;;;;;5032446;28;20022;-77
2023/06/04 11:37:38;;;;;;;12.88;11.55;;;28.20;80.60;;;;;;5028814;28;20041;-77
2023/06/04 11:40:26;;;;;;;12.98;11.77;;;28.00;80.00;;;;;;5047702;28;20026;-77
2023/06/04 11:42:52;;;;;;;11.65;10.65;;;27.90;81.50;;;;;;5047195;28;20045;-77
2023/06/04 11:45:20;;;;;;;13.75;12.30;;;27.90;80.90;;;;;;5047086;28;20032;-77
2023/06/04 11:47:50;;;;;;;13.45;12.25;;;28.00;81.90;;;;;;5039380;28;20048;-76
2023/06/04 11:50:16;;;;;;;11.98;11.02;;;28.10;81.00;;;;;;5048962;28;20040;-77
2023/06/04 11:52:43;;;;;;;12.75;11.55;;;28.10;80.30;;;;;;5014724;28;20037;-77
2023/06/04 11:55:12;;;;;;;13.07;12.05;;;28.10;80.70;;;;;;4998317;28;20037;-77
2023/06/04 11:57:38;;;;;;;12.93;11.82;;;28.00;80.80;;;;;;5014368;28;20041;-78
2023/06/04 12:00:12;;;;;;;12.98;11.98;;;28.10;81.10;;;;;;5014060;28;20037;-77
2023/06/04 12:02:59;;;;;;;13.52;12.50;;;28.10;80.40;;;;;;5015605;28;20025;-76
2023/06/04 12:05:31;;;;;;;12.50;11.60;;;28.30;79.40;;;;;;5030547;28;20048;-76
2023/06/04 12:08:09;;;;;;;13.18;11.98;;;28.20;77.90;;;;;;5031138;28;20030;-77
2023/06/04 12:10:39;;;;;;;12.27;11.30;;;28.40;77.90;;;;;;5014069;28;20479;-76
2023/06/04 12:13:05;;;;;;;12.48;11.25;;;28.20;77.20;;;;;;5031021;28;20482;-77
2023/06/04 12:15:31;;;;;;;13.10;12.10;;;28.20;76.60;;;;;;5013843;28;20034;-76
2023/06/04 12:17:57;;;;;;;13.60;12.10;;;28.30;76.00;;;;;;5014070;28;20029;-76
2023/06/04 12:20:52;;;;;;;12.45;11.35;;;28.40;75.40;;;;;;5030594;28;20379;-77
2023/06/04 12:23:21;;;;;;;12.32;11.43;;;28.50;77.10;;;;;;5030197;28;20482;-77
2023/06/04 12:25:50;;;;;;;11.77;10.98;;;28.50;75.00;;;;;;5030446;28;20367;-76
2023/06/04 12:28:17;;;;;;;12.88;11.88;;;28.50;75.60;;;;;;5032102;28;20037;-77
2023/06/04 12:30:44;;;;;;;13.48;12.38;;;28.50;75.00;;;;;;5030029;28;20040;-77
2023/06/04 12:33:12;;;;;;;12.77;11.73;;;28.60;75.00;;;;;;5031823;28;20029;-77
2023/06/04 12:35:38;;;;;;;12.55;11.55;;;28.50;76.50;;;;;;5030709;28;20033;-77
2023/06/04 12:38:05;;;;;;;12.80;11.68;;;28.50;75.10;;;;;;5047115;28;20033;-77
2023/06/04 12:40:31;;;;;;;13.82;12.70;;;28.50;74.40;;;;;;5013287;28;20060;-76
2023/06/04 12:42:57;;;;;;;15.57;14.25;;;28.50;75.20;;;;;;5030728;28;20049;-78